Time;durP1;ratioP1;P1;durP2;ratioP2;P2;SDS_P1;SDS_P2;PMS_P1;PMS_P2;Temp;Humidity;BMP_temperature;BMP_pressure;BME280_temperature;BME280_humidity;BME280_pressure;Samples;Min_cycle;Max_cycle;Signal;HPM_P1;HPM_P2
2021/12/31 00:00:47;;;;;;;;;;;;;;;;;;5033731;28;19917;-78
2021/12/31 00:03:13;;;;;;;;;;;;;;;;;;5031443;28;19913;-77
2021/12/31 00:05:42;;;;;;;;;;;;;;;;;;5034006;28;19928;-77
2021/12/31 00:08:18;;;;;;;;;;;;;;;;;;5016846;28;20004;-78
2021/12/31 00:10:44;;;;;;;;;;;;;;;;;;5034309;28;19924;-77
2021/12/31 00:13:09;;;;;;;;;;;;;;;;;;5034266;28;19913;-77
2021/12/31 00:15:38;;;;;;;;;;;;;;;;;;5033664;28;19916;-77
2021/12/31 00:18:04;;;;;;;;;;;;;;;;;;5018355;28;20010;-78
2021/12/31 00:20:29;;;;;;;;;;;;;;;;;;5023993;28;19990;-78
2021/12/31 00:23:06;;;;;;;;;;;;;;;;;;5033949;28;19917;-76
2021/12/31 00:25:40;;;;;;;;;;;;;;;;;;5007396;28;20270;-77
2021/12/31 00:28:15;;;;;;;;;;;;;;;;;;5032902;28;19945;-77
2021/12/31 00:30:41;;;;;;;;;;;;;;;;;;5032987;28;19913;-76
2021/12/31 00:33:08;;;;;;;;;;;;;;;;;;5016596;28;19917;-77
2021/12/31 00:35:37;;;;;;;;;;;;;;;;;;5032710;28;19928;-76
2021/12/31 00:38:02;;;;;;;;;;;;;;;;;;5033894;28;19917;-77
2021/12/31 00:40:30;;;;;;;;;;;;;;;;;;5033829;28;19921;-77
2021/12/31 00:42:58;;;;;;;;;;;;;;;;;;5033263;28;20301;-77
2021/12/31 00:45:27;;;;;;;;;;;;;;;;;;5016493;28;20333;-77
2021/12/31 00:47:55;;;;;;;;;;;;;;;;;;5013498;28;19980;-76
2021/12/31 00:50:20;;;;;;;;;;;;;;;;;;5013821;28;19920;-77
2021/12/31 00:52:45;;;;;;;;;;;;;;;;;;5033591;28;19921;-77
2021/12/31 00:55:13;;;;;;;;;;;;;;;;;;5033289;28;19975;-76
2021/12/31 00:57:48;;;;;;;;;;;;;;;;;;5016407;28;19913;-77
2021/12/31 01:00:16;;;;;;;;;;;;;;;;;;5031695;28;19929;-77
2021/12/31 01:02:46;;;;;;;;;;;;;;;;;;5045393;28;20226;-77
2021/12/31 01:05:17;;;;;;;;;;;;;;;;;;5043203;28;19925;-77
2021/12/31 01:07:47;;;;;;;;;;;;;;;;;;5035057;28;20239;-77
2021/12/31 01:10:22;;;;;;;;;;;;;;;;;;5035751;28;19928;-77
2021/12/31 01:12:47;;;;;;;;;;;;;;;;;;4998196;28;19913;-77
2021/12/31 01:15:21;;;;;;;;;;;;;;;;;;5020136;28;19928;-76
2021/12/31 01:20:28;;;;;;;;;;;;;;;;;;5037026;28;19917;-75
2021/12/31 01:22:56;;;;;;;;;;;;;;;;;;5037346;28;19999;-76
2021/12/31 01:25:21;;;;;;;;;;;;;;;;;;5021199;28;20353;-76
2021/12/31 01:27:51;;;;;;;;;;;;;;;;;;5019653;28;20023;-76
2021/12/31 01:30:17;;;;;;;;;;;;;;;;;;5037239;28;19925;-76
2021/12/31 01:32:45;;;;;;;;;;;;;;;;;;5037498;28;20011;-77
2021/12/31 01:35:11;;;;;;;;;;;;;;;;;;5040244;28;19917;-77
2021/12/31 01:37:36;;;;;;;;;;;;;;;;;;5036565;28;19932;-76
2021/12/31 01:40:03;;;;;;;;;;;;;;;;;;5020804;28;19920;-76
2021/12/31 01:42:32;;;;;;;;;;;;;;;;;;5036534;28;20350;-77
2021/12/31 01:45:04;;;;;;;;;;;;;;;;;;5056226;28;19970;-76
2021/12/31 01:47:45;;;;;;;;;;;;;;;;;;5055405;28;20020;-76
2021/12/31 01:50:11;;;;;;;;;;;;;;;;;;5036438;28;19913;-76
2021/12/31 01:52:40;;;;;;;;;;;;;;;;;;5036442;28;19928;-76
2021/12/31 01:55:05;;;;;;;;;;;;;;;;;;5036790;28;19975;-76
2021/12/31 01:57:30;;;;;;;;;;;;;;;;;;5054792;28;19916;-76
2021/12/31 01:59:55;;;;;;;;;;;;;;;;;;5056036;28;19967;-76
2021/12/31 02:02:21;;;;;;;;;;;;;;;;;;5047486;28;19917;-76
2021/12/31 02:04:48;;;;;;;;;;;;;;;;;;5035652;28;19917;-76
2021/12/31 02:07:16;;;;;;;;;;;;;;;;;;5036917;28;19917;-76
2021/12/31 02:09:54;;;;;;;;;;;;;;;;;;5034447;28;20023;-76
2021/12/31 02:12:24;;;;;;;;;;;;;;;;;;5050731;28;20352;-76
2021/12/31 02:14:50;;;;;;;;;;;;;;;;;;5018067;28;19917;-76
2021/12/31 02:17:16;;;;;;;;;;;;;;;;;;5037243;28;19924;-77
2021/12/31 02:19:44;;;;;;;;;;;;;;;;;;5036459;28;19913;-76
2021/12/31 02:22:09;;;;;;;;;;;;;;;;;;5051209;28;19966;-77
2021/12/31 02:24:36;;;;;;;;;;;;;;;;;;5056211;28;19925;-76
2021/12/31 02:27:01;;;;;;;;;;;;;;;;;;5038582;28;19948;-76
2021/12/31 02:29:27;;;;;;;;;;;;;;;;;;5036243;28;19952;-76
2021/12/31 02:31:54;;;;;;;;;;;;;;;;;;5036569;28;19963;-77
2021/12/31 02:34:20;;;;;;;;;;;;;;;;;;5036786;28;19913;-76
2021/12/31 02:36:45;;;;;;;;;;;;;;;;;;5036704;28;19927;-76
2021/12/31 02:39:12;;;;;;;;;;;;;;;;;;5041617;28;19912;-76
2021/12/31 02:41:40;;;;;;;;;;;;;;;;;;5040833;28;20346;-76
2021/12/31 02:44:08;;;;;;;;;;;;;;;;;;5041481;28;19921;-76
2021/12/31 02:46:36;;;;;;;;;;;;;;;;;;5056404;28;20350;-76
2021/12/31 02:49:01;;;;;;;;;;;;;;;;;;5051515;28;19917;-76
2021/12/31 02:51:27;;;;;;;;;;;;;;;;;;5036331;28;20357;-77
2021/12/31 02:53:53;;;;;;;;;;;;;;;;;;5035606;28;20365;-76
2021/12/31 02:56:18;;;;;;;;;;;;;;;;;;5035617;28;20357;-76
2021/12/31 02:58:48;;;;;;;;;;;;;;;;;;5035391;28;20008;-76
2021/12/31 03:01:14;;;;;;;;;;;;;;;;;;5031726;28;19967;-76
2021/12/31 03:03:41;;;;;;;;;;;;;;;;;;5046034;28;19952;-76
2021/12/31 03:06:09;;;;;;;;;;;;;;;;;;5037129;28;19913;-76
2021/12/31 03:08:41;;;;;;;;;;;;;;;;;;5036209;28;20451;-77
2021/12/31 03:11:07;;;;;;;;;;;;;;;;;;5034616;28;20357;-77
2021/12/31 03:13:35;;;;;;;;;;;;;;;;;;5018799;28;19943;-76
2021/12/31 03:16:03;;;;;;;;;;;;;;;;;;5036012;28;20009;-76
2021/12/31 03:18:29;;;;;;;;;;;;;;;;;;5029080;28;19916;-77
2021/12/31 03:20:57;;;;;;;;;;;;;;;;;;5053761;28;19936;-77
2021/12/31 03:23:26;;;;;;;;;;;;;;;;;;5037443;28;19917;-76
2021/12/31 03:25:51;;;;;;;;;;;;;;;;;;5034963;28;19979;-77
2021/12/31 03:28:16;;;;;;;;;;;;;;;;;;5035166;28;19917;-76
2021/12/31 03:30:47;;;;;;;;;;;;;;;;;;5034819;28;19913;-76
2021/12/31 03:33:12;;;;;;;;;;;;;;;;;;5035065;28;19983;-77
2021/12/31 03:35:39;;;;;;;;;;;;;;;;;;5034984;28;19913;-78
2021/12/31 03:38:05;;;;;;;;;;;;;;;;;;5034439;28;20003;-76
2021/12/31 03:40:30;;;;;;;;;;;;;;;;;;5033621;28;20017;-76
2021/12/31 03:42:55;;;;;;;;;;;;;;;;;;5038660;28;19921;-76
2021/12/31 03:45:20;;;;;;;;;;;;;;;;;;5053499;28;19928;-77
2021/12/31 03:47:48;;;;;;;;;;;;;;;;;;5050936;28;19944;-77
2021/12/31 03:50:15;;;;;;;;;;;;;;;;;;5034632;28;19913;-77
2021/12/31 03:52:41;;;;;;;;;;;;;;;;;;5033986;28;19923;-77
2021/12/31 03:55:07;;;;;;;;;;;;;;;;;;5033342;28;19921;-77
2021/12/31 03:57:32;;;;;;;;;;;;;;;;;;5034842;28;19913;-76
2021/12/31 03:59:59;;;;;;;;;;;;;;;;;;5037027;28;19913;-76
2021/12/31 04:02:27;;;;;;;;;;;;;;;;;;5054106;28;19913;-76
2021/12/31 04:04:57;;;;;;;;;;;;;;;;;;5054237;28;20227;-76
2021/12/31 04:07:24;;;;;;;;;;;;;;;;;;5054067;28;19978;-76
2021/12/31 04:09:51;;;;;;;;;;;;;;;;;;5026047;28;19963;-76
2021/12/31 04:12:17;;;;;;;;;;;;;;;;;;5033330;28;19918;-76
2021/12/31 04:14:42;;;;;;;;;;;;;;;;;;5052571;28;20230;-76
2021/12/31 04:17:10;;;;;;;;;;;;;;;;;;5053326;28;20257;-76
2021/12/31 04:19:38;;;;;;;;;;;;;;;;;;5034974;28;19932;-76
2021/12/31 04:22:07;;;;;;;;;;;;;;;;;;5035394;28;19923;-76
2021/12/31 04:27:10;;;;;;;;;;;;;;;;;;5033849;28;20315;-77
2021/12/31 04:29:35;;;;;;;;;;;;;;;;;;5049491;28;19923;-76
2021/12/31 04:32:03;;;;;;;;;;;;;;;;;;5032628;28;19913;-76
2021/12/31 04:34:31;;;;;;;;;;;;;;;;;;5033141;28;20342;-76
2021/12/31 04:36:56;;;;;;;;;;;;;;;;;;5034408;28;19917;-76
2021/12/31 04:39:21;;;;;;;;;;;;;;;;;;5031471;28;19947;-76
2021/12/31 04:41:47;;;;;;;;;;;;;;;;;;4997042;28;19913;-76
2021/12/31 04:44:12;;;;;;;;;;;;;;;;;;5027705;28;19974;-76
2021/12/31 04:46:37;;;;;;;;;;;;;;;;;;5033901;28;19913;-76
2021/12/31 04:49:07;;;;;;;;;;;;;;;;;;5021733;28;19995;-76
2021/12/31 04:51:33;;;;;;;;;;;;;;;;;;5021108;28;19920;-76
2021/12/31 04:53:58;;;;;;;;;;;;;;;;;;5014369;28;19928;-77
2021/12/31 04:56:23;;;;;;;;;;;;;;;;;;5018219;28;19917;-76
2021/12/31 04:58:49;;;;;;;;;;;;;;;;;;5014207;28;19914;-76
2021/12/31 05:01:20;;;;;;;;;;;;;;;;;;5013716;28;19966;-76
2021/12/31 05:03:46;;;;;;;;;;;;;;;;;;5013426;28;19971;-76
2021/12/31 05:06:11;;;;;;;;;;;;;;;;;;4998509;28;20262;-76
2021/12/31 05:08:39;;;;;;;;;;;;;;;;;;4980374;28;19928;-76
2021/12/31 05:11:06;;;;;;;;;;;;;;;;;;5013589;28;19979;-76
2021/12/31 05:13:31;;;;;;;;;;;;;;;;;;5013816;28;19918;-76
2021/12/31 05:16:03;;;;;;;;;;;;;;;;;;5011993;28;19924;-77
2021/12/31 05:18:28;;;;;;;;;;;;;;;;;;4996483;28;19913;-76
2021/12/31 05:20:56;;;;;;;;;;;;;;;;;;5014316;28;20430;-76
2021/12/31 05:23:23;;;;;;;;;;;;;;;;;;4996554;28;19932;-77
2021/12/31 05:25:49;;;;;;;;;;;;;;;;;;5013876;28;19917;-76
2021/12/31 05:28:16;;;;;;;;;;;;;;;;;;5033621;28;19921;-77
2021/12/31 05:30:44;;;;;;;;;;;;;;;;;;5021987;28;20012;-76
2021/12/31 05:33:09;;;;;;;;;;;;;;;;;;5013668;28;19928;-76
2021/12/31 05:35:37;;;;;;;;;;;;;;;;;;5013694;28;19913;-77
2021/12/31 05:38:04;;;;;;;;;;;;;;;;;;5014546;28;19917;-76
2021/12/31 05:40:29;;;;;;;;;;;;;;;;;;5013657;28;20011;-77
2021/12/31 05:42:55;;;;;;;;;;;;;;;;;;5050879;28;20325;-77
2021/12/31 05:45:20;;;;;;;;;;;;;;;;;;5024938;28;19952;-76
2021/12/31 05:47:48;;;;;;;;;;;;;;;;;;5036270;28;20281;-78
2021/12/31 05:50:29;;;;;;;;;;;;;;;;;;5036062;28;19913;-77
2021/12/31 05:52:55;;;;;;;;;;;;;;;;;;5036620;28;19932;-77
2021/12/31 05:55:21;;;;;;;;;;;;;;;;;;5036978;28;19970;-76
2021/12/31 05:57:46;;;;;;;;;;;;;;;;;;5036518;28;19921;-77
2021/12/31 06:00:11;;;;;;;;;;;;;;;;;;5037717;28;19917;-76
2021/12/31 06:02:38;;;;;;;;;;;;;;;;;;5036597;28;19928;-76
2021/12/31 06:05:09;;;;;;;;;;;;;;;;;;5036864;28;19978;-77
2021/12/31 06:07:34;;;;;;;;;;;;;;;;;;5036571;28;20014;-76
2021/12/31 06:09:59;;;;;;;;;;;;;;;;;;5017709;28;19917;-76
2021/12/31 06:12:25;;;;;;;;;;;;;;;;;;5024667;28;19921;-76
2021/12/31 06:14:52;;;;;;;;;;;;;;;;;;5036684;28;19999;-77
2021/12/31 06:17:22;;;;;;;;;;;;;;;;;;5035592;28;19913;-76
2021/12/31 06:19:50;;;;;;;;;;;;;;;;;;5039024;28;19927;-76
2021/12/31 06:22:17;;;;;;;;;;;;;;;;;;5041434;28;20004;-77
2021/12/31 06:24:42;;;;;;;;;;;;;;;;;;5038806;28;19921;-77
2021/12/31 06:27:08;;;;;;;;;;;;;;;;;;5039245;28;19917;-77
2021/12/31 06:29:35;;;;;;;;;;;;;;;;;;5035375;28;19963;-76
2021/12/31 06:32:03;;;;;;;;;;;;;;;;;;5035147;28;20007;-78
2021/12/31 06:34:28;;;;;;;;;;;;;;;;;;5035311;28;20019;-77
2021/12/31 06:36:53;;;;;;;;;;;;;;;;;;5035082;28;20016;-76
2021/12/31 06:39:19;;;;;;;;;;;;;;;;;;5035508;28;19928;-76
2021/12/31 06:41:46;;;;;;;;;;;;;;;;;;5036426;28;19925;-78
2021/12/31 06:44:11;;;;;;;;;;;;;;;;;;5035857;28;20342;-76
2021/12/31 06:46:37;;;;;;;;;;;;;;;;;;5053508;28;19916;-77
2021/12/31 06:49:04;;;;;;;;;;;;;;;;;;5055655;28;19920;-76
2021/12/31 06:51:34;;;;;;;;;;;;;;;;;;5054950;28;19924;-76
2021/12/31 06:54:01;;;;;;;;;;;;;;;;;;5044915;28;19949;-77
2021/12/31 06:56:27;;;;;;;;;;;;;;;;;;5050386;28;19916;-77
2021/12/31 06:58:52;;;;;;;;;;;;;;;;;;5054510;28;19913;-77
2021/12/31 07:01:17;;;;;;;;;;;;;;;;;;5044629;28;20058;-76
2021/12/31 07:03:42;;;;;;;;;;;;;;;;;;5034193;28;19978;-76
2021/12/31 07:06:10;;;;;;;;;;;;;;;;;;5035731;28;19991;-76
2021/12/31 07:08:35;;;;;;;;;;;;;;;;;;5034254;28;19913;-76
2021/12/31 07:11:00;;;;;;;;;;;;;;;;;;5034559;28;19917;-77
2021/12/31 07:13:26;;;;;;;;;;;;;;;;;;5035297;28;19924;-76
2021/12/31 07:15:51;;;;;;;;;;;;;;;;;;5037305;28;20357;-75
2021/12/31 07:18:19;;;;;;;;;;;;;;;;;;5035541;28;19913;-75
2021/12/31 07:20:45;;;;;;;;;;;;;;;;;;5034965;28;20056;-76
2021/12/31 07:23:11;;;;;;;;;;;;;;;;;;5035332;28;19960;-76
2021/12/31 07:25:39;;;;;;;;;;;;;;;;;;5034035;28;19972;-76
2021/12/31 07:28:07;;;;;;;;;;;;;;;;;;5034280;28;19917;-75
2021/12/31 07:30:32;;;;;;;;;;;;;;;;;;5034574;28;19917;-76
2021/12/31 07:32:59;;;;;;;;;;;;;;;;;;5035040;28;20346;-76
2021/12/31 07:35:25;;;;;;;;;;;;;;;;;;5033874;28;19917;-76
2021/12/31 07:37:55;;;;;;;;;;;;;;;;;;5034979;28;20223;-75
2021/12/31 07:40:41;;;;;;;;;;;;;;;;;;5034717;28;19921;-75
2021/12/31 07:43:11;;;;;;;;;;;;;;;;;;5034994;28;19916;-76
2021/12/31 07:45:36;;;;;;;;;;;;;;;;;;5033461;28;20317;-76
2021/12/31 07:48:04;;;;;;;;;;;;;;;;;;5039932;28;20031;-76
2021/12/31 07:50:32;;;;;;;;;;;;;;;;;;5053809;28;19921;-76
2021/12/31 07:52:57;;;;;;;;;;;;;;;;;;5048116;28;19965;-76
2021/12/31 07:55:25;;;;;;;;;;;;;;;;;;5033645;28;20385;-76
2021/12/31 07:57:50;;;;;;;;;;;;;;;;;;5033654;28;19960;-76
2021/12/31 08:00:17;;;;;;;;;;;;;;;;;;5046517;28;19994;-76
2021/12/31 08:02:45;;;;;;;;;;;;;;;;;;5050791;28;19914;-76
2021/12/31 08:05:10;;;;;;;;;;;;;;;;;;5034267;28;19917;-76
2021/12/31 08:07:35;;;;;;;;;;;;;;;;;;5036445;28;19925;-76
2021/12/31 08:10:03;;;;;;;;;;;;;;;;;;5054130;28;19913;-76
2021/12/31 08:12:31;;;;;;;;;;;;;;;;;;5052582;28;20007;-76
2021/12/31 08:14:59;;;;;;;;;;;;;;;;;;5033627;28;19921;-76
2021/12/31 08:17:24;;;;;;;;;;;;;;;;;;5034657;28;19913;-76
2021/12/31 08:19:52;;;;;;;;;;;;;;;;;;5035107;28;19913;-76
2021/12/31 08:22:17;;;;;;;;;;;;;;;;;;5034275;28;19917;-76
2021/12/31 08:24:44;;;;;;;;;;;;;;;;;;5034346;28;20235;-75
2021/12/31 08:27:10;;;;;;;;;;;;;;;;;;5032592;28;19956;-76
2021/12/31 08:29:35;;;;;;;;;;;;;;;;;;5031839;28;20309;-76
2021/12/31 08:32:00;;;;;;;;;;;;;;;;;;5013428;28;19976;-76
2021/12/31 08:34:25;;;;;;;;;;;;;;;;;;5031779;28;19944;-76
2021/12/31 08:36:53;;;;;;;;;;;;;;;;;;5034079;28;19913;-75
2021/12/31 08:39:18;;;;;;;;;;;;;;;;;;5033841;28;20004;-74
2021/12/31 08:41:43;;;;;;;;;;;;;;;;;;5035533;28;20004;-75
2021/12/31 08:44:11;;;;;;;;;;;;;;;;;;5034013;28;20462;-76
2021/12/31 08:46:40;;;;;;;;;;;;;;;;;;5033896;28;19929;-76
2021/12/31 08:49:05;;;;;;;;;;;;;;;;;;5033976;28;19920;-76
2021/12/31 08:51:31;;;;;;;;;;;;;;;;;;5033945;28;19917;-76
2021/12/31 08:53:56;;;;;;;;;;;;;;;;;;5034281;28;19917;-76
2021/12/31 08:56:21;;;;;;;;;;;;;;;;;;5033787;28;20345;-78
2021/12/31 08:58:46;;;;;;;;;;;;;;;;;;5034192;28;20239;-76
2021/12/31 09:01:14;;;;;;;;;;;;;;;;;;5032796;28;19928;-76
2021/12/31 09:03:42;;;;;;;;;;;;;;;;;;5016603;28;20350;-76
2021/12/31 09:06:07;;;;;;;;;;;;;;;;;;5034035;28;19921;-76
2021/12/31 09:08:33;;;;;;;;;;;;;;;;;;5033902;28;19920;-75
2021/12/31 09:10:58;;;;;;;;;;;;;;;;;;5032991;28;19917;-76
2021/12/31 09:13:27;;;;;;;;;;;;;;;;;;5033345;28;19913;-75
2021/12/31 09:15:53;;;;;;;;;;;;;;;;;;5033647;28;19917;-76
2021/12/31 09:18:20;;;;;;;;;;;;;;;;;;5035103;28;19932;-75
2021/12/31 09:20:46;;;;;;;;;;;;;;;;;;5055527;28;19947;-76
2021/12/31 09:23:13;;;;;;;;;;;;;;;;;;5039463;28;19916;-76
2021/12/31 09:25:38;;;;;;;;;;;;;;;;;;5037398;28;19921;-76
2021/12/31 09:28:06;;;;;;;;;;;;;;;;;;5039781;28;19913;-75
2021/12/31 09:30:31;;;;;;;;;;;;;;;;;;5036311;28;19917;-76
2021/12/31 09:32:59;;;;;;;;;;;;;;;;;;5037610;28;19913;-75
2021/12/31 09:35:26;;;;;;;;;;;;;;;;;;5037020;28;20277;-76
2021/12/31 09:37:54;;;;;;;;;;;;;;;;;;5051715;28;19986;-76
2021/12/31 09:40:21;;;;;;;;;;;;;;;;;;5055647;28;19921;-76
2021/12/31 09:43:16;;;;;;;;;;;;;;;;;;5047144;28;19921;-76
2021/12/31 09:45:44;;;;;;;;;;;;;;;;;;5028760;28;19917;-76
2021/12/31 09:48:24;;;;;;;;;;;;;;;;;;5056847;28;19965;-76
2021/12/31 09:50:54;;;;;;;;;;;;;;;;;;5054138;28;19923;-76
2021/12/31 09:53:22;;;;;;;;;;;;;;;;;;5037258;28;19924;-76
2021/12/31 09:55:53;;;;;;;;;;;;;;;;;;5038597;28;19913;-77
2021/12/31 09:58:22;;;;;;;;;;;;;;;;;;5035838;28;19917;-77
2021/12/31 10:00:50;;;;;;;;;;;;;;;;;;5038887;28;19912;-76
2021/12/31 10:03:22;;;;;;;;;;;;;;;;;;5056623;28;20020;-76
2021/12/31 10:05:48;;;;;;;;;;;;;;;;;;5043032;28;19921;-77
2021/12/31 10:08:14;;;;;;;;;;;;;;;;;;5036948;28;19917;-76
2021/12/31 10:10:41;;;;;;;;;;;;;;;;;;5056549;28;20396;-76
2021/12/31 10:13:09;;;;;;;;;;;;;;;;;;5038875;28;19921;-76
2021/12/31 10:15:40;;;;;;;;;;;;;;;;;;5046467;28;20380;-76
2021/12/31 10:18:15;;;;;;;;;;;;;;;;;;5054902;28;19912;-76
2021/12/31 10:20:50;;;;;;;;;;;;;;;;;;5049897;28;19913;-76
2021/12/31 10:23:16;;;;;;;;;;;;;;;;;;5035613;28;19924;-76
2021/12/31 10:25:43;;;;;;;;;;;;;;;;;;5044321;28;19921;-76
2021/12/31 10:28:10;;;;;;;;;;;;;;;;;;5055297;28;19913;-76
2021/12/31 10:30:37;;;;;;;;;;;;;;;;;;5043409;28;20368;-76
2021/12/31 10:33:02;;;;;;;;;;;;;;;;;;5036196;28;19924;-76
2021/12/31 10:35:36;;;;;;;;;;;;;;;;;;5036136;28;19913;-76
2021/12/31 10:38:06;;;;;;;;;;;;;;;;;;5034538;28;19917;-76
2021/12/31 10:40:37;;;;;;;;;;;;;;;;;;5035770;28;19932;-77
2021/12/31 10:43:25;;;;;;;;;;;;;;;;;;5036096;28;20311;-76
2021/12/31 10:46:13;;;;;;;;;;;;;;;;;;5050993;28;19929;-76
2021/12/31 10:48:38;;;;;;;;;;;;;;;;;;5029452;28;19955;-76
2021/12/31 10:51:06;;;;;;;;;;;;;;;;;;5038134;28;19925;-76
2021/12/31 10:53:34;;;;;;;;;;;;;;;;;;5035861;28;19917;-76
2021/12/31 10:56:11;;;;;;;;;;;;;;;;;;5035738;28;20300;-76
2021/12/31 10:58:41;;;;;;;;;;;;;;;;;;5034883;28;19928;-76
2021/12/31 11:01:12;;;;;;;;;;;;;;;;;;5039041;28;20266;-76
2021/12/31 11:03:59;;;;;;;;;;;;;;;;;;5027281;28;19921;-77
2021/12/31 11:06:26;;;;;;;;;;;;;;;;;;5035094;28;20011;-76
2021/12/31 11:08:52;;;;;;;;;;;;;;;;;;5035685;28;19998;-76
2021/12/31 11:11:19;;;;;;;;;;;;;;;;;;5034307;28;20361;-77
2021/12/31 11:13:45;;;;;;;;;;;;;;;;;;5034029;28;19935;-77
2021/12/31 11:16:13;;;;;;;;;;;;;;;;;;5037936;28;20354;-78
2021/12/31 11:18:41;;;;;;;;;;;;;;;;;;5034484;28;19913;-78
2021/12/31 11:21:08;;;;;;;;;;;;;;;;;;5017477;28;19913;-78
2021/12/31 11:23:36;;;;;;;;;;;;;;;;;;5024188;28;19920;-79
2021/12/31 11:26:05;;;;;;;;;;;;;;;;;;5035272;28;19917;-79
2021/12/31 11:28:37;;;;;;;;;;;;;;;;;;5041332;28;19988;-79
2021/12/31 11:31:20;;;;;;;;;;;;;;;;;;5025731;28;19914;-79
2021/12/31 11:33:57;;;;;;;;;;;;;;;;;;5022808;28;19967;-79
2021/12/31 11:36:38;;;;;;;;;;;;;;;;;;5034769;28;19932;-79
2021/12/31 11:39:25;;;;;;;;;;;;;;;;;;5034704;28;19988;-79
2021/12/31 11:41:54;;;;;;;;;;;;;;;;;;5016913;28;19921;-79
2021/12/31 11:44:23;;;;;;;;;;;;;;;;;;5033538;28;20559;-79
2021/12/31 11:46:49;;;;;;;;;;;;;;;;;;5029318;28;19983;-79
2021/12/31 11:49:26;;;;;;;;;;;;;;;;;;5023109;28;19925;-78
2021/12/31 11:52:05;;;;;;;;;;;;;;;;;;5038224;28;19928;-78
2021/12/31 11:54:33;;;;;;;;;;;;;;;;;;5023137;28;19956;-79
2021/12/31 11:57:02;;;;;;;;;;;;;;;;;;5038065;28;20250;-80
2021/12/31 11:59:34;;;;;;;;;;;;;;;;;;5033512;28;19928;-80
2021/12/31 12:02:15;;;;;;;;;;;;;;;;;;5034759;28;19913;-79
2021/12/31 12:04:42;;;;;;;;;;;;;;;;;;5020327;28;20278;-77
2021/12/31 12:07:10;;;;;;;;;;;;;;;;;;5027607;28;19928;-75
2021/12/31 12:09:37;;;;;;;;;;;;;;;;;;5026128;28;19943;-75
2021/12/31 12:12:13;;;;;;;;;;;;;;;;;;5036066;28;20294;-75
2021/12/31 12:14:42;;;;;;;;;;;;;;;;;;5033198;28;19917;-78
2021/12/31 12:17:08;;;;;;;;;;;;;;;;;;5026449;28;20290;-80
2021/12/31 12:19:50;;;;;;;;;;;;;;;;;;5032634;28;20012;-81
2021/12/31 12:22:43;;;;;;;;;;;;;;;;;;5023870;28;19928;-77
2021/12/31 12:25:16;;;;;;;;;;;;;;;;;;5048189;28;20347;-78
2021/12/31 12:27:41;;;;;;;;;;;;;;;;;;5043900;28;20235;-78
2021/12/31 12:30:08;;;;;;;;;;;;;;;;;;5038001;28;19921;-78
2021/12/31 12:32:37;;;;;;;;;;;;;;;;;;5034001;28;19967;-77
2021/12/31 12:38:13;;;;;;;;;;;;;;;;;;5039708;28;20406;-76
2021/12/31 12:40:41;;;;;;;;;;;;;;;;;;5036740;28;19921;-78
2021/12/31 12:43:12;;;;;;;;;;;;;;;;;;5038235;28;19931;-78
2021/12/31 12:45:38;;;;;;;;;;;;;;;;;;5037039;28;19968;-79
2021/12/31 12:48:06;;;;;;;;;;;;;;;;;;5033973;28;19975;-79
2021/12/31 12:50:32;;;;;;;;;;;;;;;;;;5037219;28;19913;-78
2021/12/31 12:52:59;;;;;;;;;;;;;;;;;;5037984;28;19932;-79
2021/12/31 12:55:28;;;;;;;;;;;;;;;;;;5041112;28;19920;-79
2021/12/31 12:57:54;;;;;;;;;;;;;;;;;;5036158;28;19963;-80
2021/12/31 13:00:29;;;;;;;;;;;;;;;;;;5040908;28;19913;-79
2021/12/31 13:03:32;;;;;;;;;;;;;;;;;;5037693;28;19928;-81
2021/12/31 13:06:03;;;;;;;;;;;;;;;;;;5037878;28;19995;-83
2021/12/31 13:08:29;;;;;;;;;;;;;;;;;;5042803;28;19920;-80
2021/12/31 13:10:56;;;;;;;;;;;;;;;;;;5040310;28;19913;-79
2021/12/31 13:13:21;;;;;;;;;;;;;;;;;;5038009;28;19925;-80
2021/12/31 13:15:49;;;;;;;;;;;;;;;;;;5025978;28;19928;-82
2021/12/31 13:18:22;;;;;;;;;;;;;;;;;;5038744;28;20305;-79
2021/12/31 13:20:48;;;;;;;;;;;;;;;;;;5028866;28;20374;-81
2021/12/31 13:23:17;;;;;;;;;;;;;;;;;;5037819;28;19952;-81
2021/12/31 13:25:50;;;;;;;;;;;;;;;;;;5027434;28;19963;-81
2021/12/31 13:28:17;;;;;;;;;;;;;;;;;;5018142;28;20450;-79
2021/12/31 13:30:54;;;;;;;;;;;;;;;;;;5037782;28;19980;-78
2021/12/31 13:33:45;;;;;;;;;;;;;;;;;;5041283;28;20373;-80
2021/12/31 13:36:13;;;;;;;;;;;;;;;;;;5027992;28;19917;-79
2021/12/31 13:38:57;;;;;;;;;;;;;;;;;;5035613;28;19921;-82
2021/12/31 13:41:25;;;;;;;;;;;;;;;;;;5033339;28;19921;-79
2021/12/31 13:43:58;;;;;;;;;;;;;;;;;;5040077;28;19939;-77
2021/12/31 13:46:41;;;;;;;;;;;;;;;;;;5035762;28;19932;-81
2021/12/31 13:49:09;;;;;;;;;;;;;;;;;;5038428;28;19931;-84
2021/12/31 13:51:38;;;;;;;;;;;;;;;;;;5049167;28;19917;-81
2021/12/31 13:54:04;;;;;;;;;;;;;;;;;;5044330;28;20330;-81
2021/12/31 13:56:40;;;;;;;;;;;;;;;;;;5035945;28;19963;-81
2021/12/31 13:59:14;;;;;;;;;;;;;;;;;;5042153;28;19960;-82
2021/12/31 14:01:42;;;;;;;;;;;;;;;;;;5043452;28;19916;-81
2021/12/31 14:04:13;;;;;;;;;;;;;;;;;;5055883;28;19928;-81
2021/12/31 14:06:42;;;;;;;;;;;;;;;;;;5040151;28;19921;-81
2021/12/31 14:09:07;;;;;;;;;;;;;;;;;;5036183;28;19917;-81
2021/12/31 14:11:37;;;;;;;;;;;;;;;;;;5036248;28;20330;-81
2021/12/31 14:14:05;;;;;;;;;;;;;;;;;;5036141;28;19913;-81
2021/12/31 14:16:34;;;;;;;;;;;;;;;;;;5036473;28;19975;-81
2021/12/31 14:19:02;;;;;;;;;;;;;;;;;;5036670;28;20343;-80
2021/12/31 14:21:27;;;;;;;;;;;;;;;;;;5034904;28;19920;-81
2021/12/31 14:23:55;;;;;;;;;;;;;;;;;;5036193;28;19944;-81
2021/12/31 14:26:20;;;;;;;;;;;;;;;;;;5036338;28;19928;-81
2021/12/31 14:28:48;;;;;;;;;;;;;;;;;;5040634;28;19917;-81
2021/12/31 14:31:13;;;;;;;;;;;;;;;;;;5035307;28;19925;-81
2021/12/31 14:33:42;;;;;;;;;;;;;;;;;;5035194;28;19920;-82
2021/12/31 14:36:10;;;;;;;;;;;;;;;;;;5033861;28;19925;-81
2021/12/31 14:38:40;;;;;;;;;;;;;;;;;;5032409;28;19913;-81
2021/12/31 14:41:21;;;;;;;;;;;;;;;;;;5035927;28;19952;-80
2021/12/31 14:43:47;;;;;;;;;;;;;;;;;;5050116;28;20447;-80
2021/12/31 14:46:12;;;;;;;;;;;;;;;;;;5055712;28;19917;-80
2021/12/31 14:48:40;;;;;;;;;;;;;;;;;;5055928;28;20345;-81
2021/12/31 14:51:07;;;;;;;;;;;;;;;;;;5052819;28;19929;-80
2021/12/31 14:53:32;;;;;;;;;;;;;;;;;;5035053;28;19913;-80
2021/12/31 14:56:00;;;;;;;;;;;;;;;;;;5036917;28;20277;-81
2021/12/31 14:58:25;;;;;;;;;;;;;;;;;;5036616;28;19921;-80
2021/12/31 15:00:53;;;;;;;;;;;;;;;;;;5034923;28;19912;-81
2021/12/31 15:03:19;;;;;;;;;;;;;;;;;;5035455;28;19913;-80
2021/12/31 15:05:47;;;;;;;;;;;;;;;;;;5039690;28;19921;-81
2021/12/31 15:08:12;;;;;;;;;;;;;;;;;;5035061;28;20245;-80
2021/12/31 15:10:39;;;;;;;;;;;;;;;;;;5028836;28;19917;-80
2021/12/31 15:13:04;;;;;;;;;;;;;;;;;;5029187;28;19925;-79
2021/12/31 15:15:36;;;;;;;;;;;;;;;;;;5042614;28;20357;-80
2021/12/31 15:18:11;;;;;;;;;;;;;;;;;;5043398;28;19924;-81
2021/12/31 15:20:38;;;;;;;;;;;;;;;;;;5034549;28;19921;-80
2021/12/31 15:23:06;;;;;;;;;;;;;;;;;;5032809;28;19976;-80
2021/12/31 15:25:33;;;;;;;;;;;;;;;;;;5042369;28;19978;-79
2021/12/31 15:27:59;;;;;;;;;;;;;;;;;;5030244;28;19996;-79
2021/12/31 15:30:29;;;;;;;;;;;;;;;;;;5036313;28;20443;-79
2021/12/31 15:33:01;;;;;;;;;;;;;;;;;;5035796;28;19921;-79
2021/12/31 15:35:26;;;;;;;;;;;;;;;;;;5034941;28;20094;-79
2021/12/31 15:37:52;;;;;;;;;;;;;;;;;;5031308;28;20011;-81
2021/12/31 15:40:21;;;;;;;;;;;;;;;;;;5038075;28;19921;-80
2021/12/31 15:42:46;;;;;;;;;;;;;;;;;;5036128;28;19929;-80
2021/12/31 15:45:16;;;;;;;;;;;;;;;;;;5034303;28;19921;-80
2021/12/31 15:47:42;;;;;;;;;;;;;;;;;;5037434;28;19927;-83
2021/12/31 15:50:12;;;;;;;;;;;;;;;;;;5034821;28;19913;-82
2021/12/31 15:52:37;;;;;;;;;;;;;;;;;;5038609;28;19921;-83
2021/12/31 15:55:10;;;;;;;;;;;;;;;;;;5034146;28;19925;-84
2021/12/31 15:57:35;;;;;;;;;;;;;;;;;;5040185;28;19961;-84
2021/12/31 16:00:03;;;;;;;;;;;;;;;;;;5047891;28;19955;-84
2021/12/31 16:02:28;;;;;;;;;;;;;;;;;;5035091;28;19913;-82
2021/12/31 16:05:01;;;;;;;;;;;;;;;;;;5046470;28;19932;-83
2021/12/31 16:07:30;;;;;;;;;;;;;;;;;;5034804;28;20396;-84
2021/12/31 16:09:56;;;;;;;;;;;;;;;;;;5034084;28;19925;-86
2021/12/31 16:12:21;;;;;;;;;;;;;;;;;;5034588;28;19917;-82
2021/12/31 16:15:08;;;;;;;;;;;;;;;;;;5037349;28;19921;-84
2021/12/31 16:17:54;;;;;;;;;;;;;;;;;;5028742;28;20012;-81
2021/12/31 16:20:19;;;;;;;;;;;;;;;;;;5030049;28;19913;-80
2021/12/31 16:22:45;;;;;;;;;;;;;;;;;;5038805;28;19939;-80
2021/12/31 16:25:12;;;;;;;;;;;;;;;;;;5037533;28;19925;-85
2021/12/31 16:27:37;;;;;;;;;;;;;;;;;;5040797;28;19913;-84
2021/12/31 16:30:04;;;;;;;;;;;;;;;;;;5034049;28;19936;-83
2021/12/31 16:32:32;;;;;;;;;;;;;;;;;;5038491;28;19928;-83
2021/12/31 16:35:01;;;;;;;;;;;;;;;;;;5032969;28;20477;-85
2021/12/31 16:37:26;;;;;;;;;;;;;;;;;;5013831;28;19921;-81
2021/12/31 16:39:55;;;;;;;;;;;;;;;;;;5033919;28;20063;-80
2021/12/31 16:42:20;;;;;;;;;;;;;;;;;;5043307;28;19924;-80
2021/12/31 16:44:50;;;;;;;;;;;;;;;;;;5030376;28;19920;-80
2021/12/31 16:47:15;;;;;;;;;;;;;;;;;;5030361;28;20059;-81
2021/12/31 16:50:28;;;;;;;;;;;;;;;;;;5035664;28;20377;-81
2021/12/31 16:55:56;;;;;;;;;;;;;;;;;;5002607;28;19970;-79
2021/12/31 16:58:22;;;;;;;;;;;;;;;;;;5032009;28;20310;-80
2021/12/31 17:00:50;;;;;;;;;;;;;;;;;;5032088;28;19968;-78
2021/12/31 17:03:15;;;;;;;;;;;;;;;;;;5033590;28;20254;-77
2021/12/31 17:05:40;;;;;;;;;;;;;;;;;;5036175;28;19921;-78